createdAt,value
2022-08-04T00:00:32.010Z,53939.78
2022-08-04T00:03:14.625Z,53929.84
2022-08-04T00:05:56.010Z,53933.81
2022-08-04T00:08:37.453Z,53935.81
2022-08-04T00:11:08.200Z,53989.59
2022-08-04T00:13:57.999Z,53929.84
2022-08-04T00:16:37.567Z,53937.81
2022-08-04T00:19:13.306Z,53971.66
2022-08-04T00:21:46.897Z,53971.66
2022-08-04T00:24:17.209Z,53973.66
2022-08-04T00:26:47.695Z,53939.78
2022-08-04T00:29:16.734Z,53951.75
2022-08-04T00:31:54.858Z,53953.75
2022-08-04T00:34:28.886Z,53981.63
2022-08-04T00:36:58.042Z,53961.72
2022-08-04T00:39:27.643Z,53897.97
2022-08-04T00:42:22.074Z,53973.66
2022-08-04T00:45:04.294Z,53973.66
2022-08-04T00:47:59.149Z,53915.88
2022-08-04T00:50:38.755Z,53915.88
2022-08-04T00:53:11.364Z,53935.81
2022-08-04T00:55:59.182Z,54009.53
2022-08-04T00:58:43.848Z,53959.72
2022-08-04T01:01:30.240Z,53923.84
2022-08-04T01:04:04.867Z,53977.66
2022-08-04T01:06:44.089Z,53961.72
2022-08-04T01:09:33.246Z,53957.72
2022-08-04T01:12:28.029Z,53997.56
2022-08-04T01:15:06.319Z,53983.63
2022-08-04T01:17:55.292Z,53975.66
2022-08-04T01:20:27.037Z,53949.75
2022-08-04T01:23:32.311Z,53965.69
2022-08-04T01:26:40.373Z,53973.66
2022-08-04T01:29:15.851Z,53967.69
2022-08-04T01:31:54.384Z,53933.81
2022-08-04T01:34:24.318Z,53967.69
2022-08-04T01:37:01.071Z,53963.69
2022-08-04T01:39:42.888Z,53991.59
2022-08-04T01:42:31.486Z,54013.50
2022-08-04T01:45:03.817Z,53993.59
2022-08-04T01:47:35.296Z,53957.72
2022-08-04T01:50:09.756Z,53965.69
2022-08-04T01:52:39.103Z,53993.59
2022-08-04T01:55:10.278Z,53981.63
2022-08-04T01:57:43.586Z,53991.59
2022-08-04T02:00:15.863Z,53993.59
2022-08-04T02:02:45.477Z,54021.47
2022-08-04T02:05:17.478Z,53999.56
2022-08-04T02:07:56.319Z,53945.78
2022-08-04T02:10:30.597Z,54033.44
2022-08-04T02:13:11.398Z,53985.63
2022-08-04T02:15:50.907Z,53965.69
2022-08-04T02:18:24.438Z,53985.63
2022-08-04T02:20:59.048Z,53977.66
2022-08-04T02:23:32.897Z,53997.56
2022-08-04T02:26:04.032Z,53979.63
2022-08-04T02:28:37.280Z,53993.59
2022-08-04T02:31:16.782Z,53995.56
2022-08-04T02:33:48.267Z,53977.66
2022-08-04T02:36:25.076Z,54037.41
2022-08-04T02:38:57.725Z,54001.56
2022-08-04T02:41:28.219Z,54017.50
2022-08-04T02:43:58.775Z,54023.47
2022-08-04T02:46:30.265Z,54005.53
2022-08-04T02:48:58.528Z,54001.56
2022-08-04T02:51:30.212Z,53969.69
2022-08-04T02:53:59.681Z,54011.50
2022-08-04T02:56:30.335Z,54017.50
2022-08-04T02:59:03.018Z,54025.47
2022-08-04T03:01:33.475Z,54023.47
2022-08-04T03:04:24.547Z,53997.56
2022-08-04T03:07:30.606Z,53993.59
2022-08-04T03:10:37.835Z,53979.63
2022-08-04T03:13:48.711Z,54005.53
2022-08-04T03:17:00.618Z,54027.44
2022-08-04T03:19:55.815Z,54013.50
2022-08-04T03:23:12.413Z,54019.47
2022-08-04T03:26:31.844Z,54003.53
2022-08-04T03:29:36.594Z,54009.53
2022-08-04T03:32:53.605Z,54025.47
2022-08-04T03:36:01.316Z,54001.56
2022-08-04T03:38:57.620Z,53997.56
2022-08-04T03:41:51.656Z,54045.38
2022-08-04T03:44:59.735Z,54029.44
2022-08-04T03:47:48.689Z,54013.50
2022-08-04T03:50:47.835Z,54033.44
2022-08-04T03:53:29.492Z,54033.44
2022-08-04T03:56:33.816Z,54027.44
2022-08-04T03:59:25.613Z,54013.50
2022-08-04T04:02:44.147Z,54043.38
2022-08-04T04:06:00.269Z,54017.50
2022-08-04T04:09:00.524Z,54005.53
2022-08-04T04:11:56.360Z,54013.50
2022-08-04T04:14:49.836Z,54015.50
2022-08-04T04:17:47.162Z,54009.53
2022-08-04T04:20:34.535Z,53987.59
2022-08-04T04:23:16.728Z,54007.53
2022-08-04T04:25:57.230Z,53975.66
2022-08-04T04:28:43.695Z,54005.53
2022-08-04T04:31:36.036Z,53993.59
2022-08-04T04:34:10.145Z,53939.78
2022-08-04T04:36:50.633Z,54003.53
2022-08-04T04:39:30.109Z,54001.56
2022-08-04T04:42:22.014Z,53993.59
2022-08-04T04:45:14.148Z,53997.56
2022-08-04T04:48:08.164Z,54021.47
2022-08-04T04:50:54.541Z,54001.56
2022-08-04T04:53:28.892Z,53947.75
2022-08-04T04:56:04.786Z,53979.63
2022-08-04T04:58:35.942Z,53941.78
2022-08-04T05:01:29.942Z,53937.81
2022-08-04T05:04:38.024Z,53953.75
2022-08-04T05:07:44.456Z,53977.66
2022-08-04T05:10:27.909Z,53949.75
2022-08-04T05:14:31.966Z,53911.91
2022-08-04T05:15:59.032Z,53899.94
2022-08-04T05:18:32.137Z,53882.03
2022-08-04T05:21:11.408Z,53802.34
2022-08-04T05:23:50.318Z,53750.53
2022-08-04T05:26:25.075Z,53664.88
2022-08-04T05:28:56.118Z,53638.97
2022-08-04T05:31:28.435Z,53563.28
2022-08-04T05:33:59.785Z,53587.19
2022-08-04T05:36:41.523Z,53658.91
2022-08-04T05:39:15.475Z,53716.69
2022-08-04T05:41:55.585Z,53758.50
2022-08-04T05:44:27.760Z,53736.59
2022-08-04T05:46:58.476Z,53806.31
2022-08-04T05:49:28.967Z,53794.38
2022-08-04T05:52:02.025Z,53782.41
2022-08-04T05:54:33.432Z,53826.25
2022-08-04T05:57:04.935Z,53806.31
2022-08-04T05:59:34.129Z,53798.34
2022-08-04T06:02:04.538Z,53810.31
2022-08-04T06:04:36.428Z,53800.34
2022-08-04T06:07:06.977Z,53800.34
2022-08-04T06:09:35.430Z,53810.31
2022-08-04T06:12:08.364Z,53800.34
2022-08-04T06:14:41.951Z,53812.28
2022-08-04T06:18:33.464Z,53834.22
2022-08-04T06:20:19.910Z,53802.34
2022-08-04T06:22:56.787Z,53818.28
2022-08-04T06:25:33.713Z,53814.28
2022-08-04T06:28:06.594Z,53850.16
2022-08-04T06:30:37.331Z,53844.16
2022-08-04T06:33:14.170Z,53820.25
2022-08-04T06:35:44.213Z,53828.22
2022-08-04T06:38:14.673Z,53822.25
2022-08-04T06:40:43.616Z,53882.03
2022-08-04T06:43:12.943Z,53818.28
2022-08-04T06:45:43.125Z,53840.19
2022-08-04T06:48:14.564Z,53810.31
2022-08-04T06:51:28.024Z,53856.13
2022-08-04T06:53:35.277Z,53838.19
2022-08-04T06:56:05.124Z,53818.28
2022-08-04T06:58:36.131Z,53842.19
2022-08-04T07:01:06.114Z,53826.25
2022-08-04T07:03:35.890Z,53802.34
2022-08-04T07:06:05.848Z,53842.19
2022-08-04T07:08:37.467Z,53858.13
2022-08-04T07:11:07.213Z,53810.31
2022-08-04T07:13:35.780Z,53830.22
2022-08-04T07:16:04.331Z,53786.41
2022-08-04T07:18:33.072Z,53808.31
2022-08-04T07:21:02.072Z,53828.22
2022-08-04T07:23:30.376Z,53826.25
2022-08-04T07:26:12.063Z,53794.38
2022-08-04T07:28:42.481Z,53796.34
2022-08-04T07:31:34.407Z,53802.34
2022-08-04T07:34:16.901Z,53792.38
2022-08-04T07:36:54.952Z,53756.50
2022-08-04T07:39:27.305Z,53796.34
2022-08-04T07:41:59.413Z,53750.53
2022-08-04T07:44:30.751Z,53758.50
2022-08-04T07:46:59.427Z,53758.50
2022-08-04T07:49:55.976Z,53724.66
2022-08-04T07:52:17.370Z,53740.56
2022-08-04T07:54:46.793Z,53734.59
2022-08-04T07:57:21.104Z,53706.72
2022-08-04T08:00:09.422Z,53724.66
2022-08-04T08:02:38.364Z,53712.69
2022-08-04T08:05:09.004Z,53720.66
2022-08-04T08:07:37.812Z,53700.75
2022-08-04T08:10:19.392Z,53674.84
2022-08-04T08:12:51.988Z,53696.75
2022-08-04T08:15:21.254Z,53724.66
2022-08-04T08:17:58.731Z,53676.84
2022-08-04T08:20:32.311Z,53658.91
2022-08-04T08:23:02.455Z,53698.75
2022-08-04T08:25:32.342Z,53670.84
2022-08-04T08:28:04.291Z,53678.81
2022-08-04T08:30:35.598Z,53664.88
2022-08-04T08:33:07.627Z,53660.91
2022-08-04T08:35:53.184Z,53654.91
2022-08-04T08:38:39.069Z,53640.97
2022-08-04T08:41:39.777Z,53660.91
2022-08-04T08:44:37.774Z,53631.00
2022-08-04T08:47:17.891Z,53635.00
2022-08-04T08:50:28.592Z,53591.19
2022-08-04T08:53:14.677Z,53633.00
2022-08-04T08:55:54.068Z,53662.88
2022-08-04T08:58:45.987Z,53603.13
2022-08-04T09:01:32.718Z,53615.06
2022-08-04T09:04:39.452Z,53617.06
2022-08-04T09:07:19.649Z,53623.03
2022-08-04T09:10:02.109Z,53587.19
2022-08-04T09:12:37.264Z,53579.22
2022-08-04T09:15:09.260Z,53613.09
2022-08-04T09:17:44.394Z,53607.09
2022-08-04T09:20:20.208Z,53611.09
2022-08-04T09:22:53.064Z,53611.09
2022-08-04T09:25:26.321Z,53601.13
2022-08-04T09:27:56.179Z,53559.31
2022-08-04T09:30:30.816Z,53609.09
2022-08-04T09:33:22.817Z,53631.00
2022-08-04T09:36:25.794Z,53613.09
2022-08-04T09:39:10.878Z,53615.06
2022-08-04T09:41:49.188Z,53589.19
2022-08-04T09:44:48.881Z,53611.09
2022-08-04T09:47:21.761Z,53599.16
2022-08-04T09:49:59.551Z,53605.13
2022-08-04T09:52:40.815Z,53591.19
2022-08-04T09:55:15.350Z,53575.25
2022-08-04T09:57:52.932Z,53549.34
2022-08-04T10:00:40.286Z,53583.22
2022-08-04T10:03:19.159Z,53573.25
2022-08-04T10:06:08.106Z,53583.22
2022-08-04T10:08:57.304Z,53575.25
2022-08-04T10:11:55.760Z,53559.31
2022-08-04T10:14:45.061Z,53567.28
2022-08-04T10:17:27.654Z,53575.25
2022-08-04T10:20:06.010Z,53569.25
2022-08-04T10:23:02.310Z,53563.28
2022-08-04T10:26:05.525Z,53575.25
2022-08-04T10:28:31.757Z,53575.25
2022-08-04T10:31:04.634Z,53615.06
2022-08-04T10:33:39.053Z,53565.28
2022-08-04T10:36:12.774Z,53537.38
2022-08-04T10:38:57.926Z,53533.41
2022-08-04T10:41:34.236Z,53563.28
2022-08-04T10:44:24.743Z,53551.34
2022-08-04T10:46:56.949Z,53523.44
2022-08-04T10:49:36.288Z,53497.56
2022-08-04T10:52:09.873Z,53559.31
2022-08-04T10:54:49.757Z,53539.38
2022-08-04T10:57:25.937Z,53543.38
2022-08-04T11:00:03.706Z,53503.53
2022-08-04T11:02:41.121Z,53525.44
2022-08-04T11:05:26.710Z,53499.53
2022-08-04T11:08:01.089Z,53537.38
2022-08-04T11:10:36.420Z,53477.63
2022-08-04T11:13:22.158Z,53535.41
2022-08-04T11:16:00.518Z,53515.47
2022-08-04T11:18:42.365Z,53511.50
2022-08-04T11:21:16.721Z,53499.53
2022-08-04T11:23:52.877Z,53511.50
2022-08-04T11:26:30.970Z,53495.56
2022-08-04T11:29:06.860Z,53517.47
2022-08-04T11:31:40.511Z,53527.44
2022-08-04T11:34:19.427Z,53499.53
2022-08-04T11:36:53.470Z,53527.44
2022-08-04T11:39:30.020Z,53527.44
2022-08-04T11:42:09.238Z,53533.41
2022-08-04T11:44:44.685Z,53519.47
2022-08-04T11:47:31.415Z,53517.47
2022-08-04T11:50:06.683Z,53487.59
2022-08-04T11:52:36.965Z,53515.47
2022-08-04T11:55:08.259Z,53501.53
2022-08-04T11:57:38.285Z,53495.56
2022-08-04T12:00:09.989Z,53491.56
2022-08-04T12:03:02.781Z,53505.53
2022-08-04T12:05:37.041Z,53505.53
2022-08-04T12:08:22.025Z,53491.56
2022-08-04T12:10:58.640Z,53491.56
2022-08-04T12:13:33.834Z,53459.69
2022-08-04T12:16:11.933Z,53495.56
2022-08-04T12:18:44.374Z,53473.66
2022-08-04T12:21:24.798Z,53485.59
2022-08-04T12:24:00.820Z,53499.53
2022-08-04T12:26:34.234Z,53469.66
2022-08-04T12:29:10.567Z,53517.47
2022-08-04T12:31:46.539Z,53517.47
2022-08-04T12:34:18.450Z,53527.44
2022-08-04T12:36:55.915Z,53525.44
2022-08-04T12:39:27.155Z,53527.44
2022-08-04T12:42:02.781Z,53495.56
2022-08-04T12:44:38.233Z,53545.34
2022-08-04T12:47:26.518Z,53515.47
2022-08-04T12:50:02.312Z,53545.34
2022-08-04T12:53:01.724Z,53527.44
2022-08-04T12:55:27.032Z,53495.56
2022-08-04T12:57:56.587Z,53523.44
2022-08-04T13:00:31.218Z,53487.59
2022-08-04T13:03:09.604Z,53517.47
2022-08-04T13:05:41.356Z,53511.50
2022-08-04T13:08:11.310Z,53507.50
2022-08-04T13:10:41.999Z,53519.47
2022-08-04T13:13:17.242Z,53511.50
2022-08-04T13:15:58.052Z,53553.31
2022-08-04T13:18:32.531Z,53499.53
2022-08-04T13:21:16.947Z,53499.53
2022-08-04T13:24:10.733Z,53513.47
2022-08-04T13:26:43.349Z,53507.50
2022-08-04T13:29:59.932Z,53501.53
2022-08-04T13:32:17.984Z,53479.63
2022-08-04T13:34:48.912Z,53489.59
2022-08-04T13:37:21.469Z,53481.63
2022-08-04T13:39:55.222Z,53481.63
2022-08-04T13:42:26.947Z,53503.53
2022-08-04T13:44:58.491Z,53483.59
2022-08-04T13:47:32.080Z,53497.56
2022-08-04T13:50:17.553Z,53473.66
2022-08-04T13:52:47.153Z,53503.53
2022-08-04T13:55:27.954Z,53489.59
2022-08-04T13:58:06.317Z,53529.41
2022-08-04T14:00:55.217Z,53487.59
2022-08-04T14:03:31.675Z,53503.53
2022-08-04T14:06:14.062Z,53491.56
2022-08-04T14:08:50.462Z,53507.50
2022-08-04T14:12:06.460Z,53461.69
2022-08-04T14:14:18.843Z,53485.59
2022-08-04T14:17:03.365Z,53475.63
2022-08-04T14:19:50.930Z,53489.59
2022-08-04T14:22:34.737Z,53487.59
2022-08-04T14:25:06.520Z,53491.56
2022-08-04T14:27:45.340Z,53515.47
2022-08-04T14:30:25.279Z,53469.66
2022-08-04T14:32:58.764Z,53483.59
2022-08-04T14:35:49.833Z,53467.66
2022-08-04T14:38:18.871Z,53501.53
2022-08-04T14:40:47.084Z,53465.69
2022-08-04T14:43:19.204Z,53491.56
2022-08-04T14:45:54.970Z,53491.56
2022-08-04T14:48:26.328Z,53489.59
2022-08-04T14:50:55.920Z,53475.63
2022-08-04T14:53:26.507Z,53501.53
2022-08-04T14:55:57.075Z,53513.47
2022-08-04T14:58:37.752Z,53475.63
2022-08-04T15:01:10.502Z,53511.50
2022-08-04T15:03:49.617Z,53521.44
2022-08-04T15:06:23.385Z,53435.78
2022-08-04T15:08:52.356Z,53527.44
2022-08-04T15:11:22.846Z,53473.66
2022-08-04T15:13:52.331Z,53487.59
2022-08-04T15:16:20.673Z,53489.59
2022-08-04T15:18:49.847Z,53507.50
2022-08-04T15:21:19.096Z,53473.66
2022-08-04T15:23:48.599Z,53483.59
2022-08-04T15:26:23.216Z,53477.63
2022-08-04T15:28:55.697Z,53501.53
2022-08-04T15:32:04.051Z,53501.53
2022-08-04T15:34:14.898Z,53495.56
2022-08-04T15:36:56.434Z,53475.63
2022-08-04T15:39:37.197Z,53487.59
2022-08-04T15:42:23.605Z,53481.63
2022-08-04T15:45:15.941Z,53481.63
2022-08-04T15:47:53.264Z,53487.59
2022-08-04T15:50:28.274Z,53485.59
2022-08-04T15:53:10.439Z,53491.56
2022-08-04T15:55:44.825Z,53467.66
2022-08-04T15:58:17.377Z,53489.59
2022-08-04T16:01:15.573Z,53479.63
2022-08-04T16:03:59.550Z,53485.59
2022-08-04T16:06:45.464Z,53519.47
2022-08-04T16:09:45.971Z,53449.75
2022-08-04T16:12:56.457Z,53475.63
2022-08-04T16:15:45.182Z,53479.63
2022-08-04T16:18:26.566Z,53491.56
2022-08-04T16:20:56.870Z,53519.47
2022-08-04T16:23:54.108Z,53491.56
2022-08-04T16:27:03.519Z,53481.63
2022-08-04T16:29:41.199Z,53485.59
2022-08-04T16:32:18.156Z,53467.66
2022-08-04T16:34:54.479Z,53479.63
2022-08-04T16:37:26.643Z,53451.72
2022-08-04T16:40:30.022Z,53437.78
2022-08-04T16:43:13.363Z,53479.63
2022-08-04T16:45:51.474Z,53469.66
2022-08-04T16:48:20.587Z,53467.66
2022-08-04T16:51:05.871Z,53459.69
2022-08-04T16:53:52.088Z,53447.75
2022-08-04T16:56:30.434Z,53467.66
2022-08-04T16:59:07.270Z,53499.53
2022-08-04T17:01:37.782Z,53479.63
2022-08-04T17:04:06.883Z,53515.47
2022-08-04T17:06:37.346Z,53485.59
2022-08-04T17:09:06.972Z,53527.44
2022-08-04T17:11:35.212Z,53523.44
2022-08-04T17:14:05.855Z,53537.38
2022-08-04T17:16:38.151Z,53553.31
2022-08-04T17:19:24.438Z,53535.41
2022-08-04T17:22:04.031Z,53599.16
2022-08-04T17:24:33.013Z,53531.41
2022-08-04T17:27:01.206Z,53563.28
2022-08-04T17:29:43.234Z,53543.38
2022-08-04T17:32:18.770Z,53555.31
2022-08-04T17:34:50.667Z,53531.41
2022-08-04T17:37:39.998Z,53559.31
2022-08-04T17:40:10.364Z,53601.13
2022-08-04T17:42:41.464Z,53563.28
2022-08-04T17:45:49.406Z,53559.31
2022-08-04T17:48:03.581Z,53623.03
2022-08-04T17:50:36.054Z,53581.22
2022-08-04T17:53:12.238Z,53603.13
2022-08-04T17:55:42.878Z,53607.09
2022-08-04T17:58:21.221Z,53581.22
2022-08-04T18:00:51.934Z,53565.28
2022-08-04T18:03:30.030Z,53559.31
2022-08-04T18:06:03.342Z,53577.22
2022-08-04T18:08:46.173Z,53617.06
2022-08-04T18:11:22.000Z,53603.13
2022-08-04T18:13:57.151Z,53571.25
2022-08-04T18:16:27.331Z,53577.22
2022-08-04T18:19:13.555Z,53591.19
2022-08-04T18:21:46.997Z,53571.25
2022-08-04T18:24:34.264Z,53579.22
2022-08-04T18:27:06.205Z,53609.09
2022-08-04T18:29:39.181Z,53595.16
2022-08-04T18:34:58.584Z,53599.16
2022-08-04T18:38:03.730Z,53603.13
2022-08-04T18:40:26.643Z,53599.16
2022-08-04T18:42:59.976Z,53619.06
2022-08-04T18:45:34.117Z,53623.03
2022-08-04T18:48:04.326Z,53633.00
2022-08-04T18:51:09.777Z,53646.94
2022-08-04T18:53:35.797Z,53571.25
2022-08-04T18:56:06.333Z,53591.19
2022-08-04T18:58:48.468Z,53619.06
2022-08-04T19:01:16.737Z,53627.03
2022-08-04T19:03:48.184Z,53595.16
2022-08-04T19:06:25.785Z,53611.09
2022-08-04T19:08:55.612Z,53623.03
2022-08-04T19:11:37.001Z,53623.03
2022-08-04T19:14:07.528Z,53619.06
2022-08-04T19:16:41.465Z,53621.06
2022-08-04T19:19:14.286Z,53648.94
2022-08-04T19:21:59.387Z,53607.09
2022-08-04T19:24:35.305Z,53652.94
2022-08-04T19:27:06.584Z,53662.88
2022-08-04T19:29:37.657Z,53617.06
2022-08-04T19:32:15.184Z,53635.00
2022-08-04T19:34:46.079Z,53658.91
2022-08-04T19:37:57.207Z,53650.94
2022-08-04T19:40:06.888Z,53660.91
2022-08-04T19:42:35.493Z,53617.06
2022-08-04T19:45:03.752Z,53650.94
2022-08-04T19:48:17.827Z,53658.91
2022-08-04T19:50:23.723Z,53670.84
2022-08-04T19:52:53.900Z,53650.94
2022-08-04T19:55:37.402Z,53656.91
2022-08-04T19:58:08.929Z,53680.81
2022-08-04T20:00:37.954Z,53676.84
2022-08-04T20:03:09.852Z,53676.84
2022-08-04T20:08:30.923Z,53696.75
2022-08-04T20:11:00.252Z,53682.81
2022-08-04T20:13:36.959Z,53706.72
2022-08-04T20:16:28.261Z,53682.81
2022-08-04T20:18:59.547Z,53696.75
2022-08-04T20:21:54.300Z,53706.72
2022-08-04T20:24:39.288Z,53730.63
2022-08-04T20:27:14.768Z,53742.56
2022-08-04T20:32:32.216Z,53718.66
2022-08-04T20:35:00.538Z,53730.63
2022-08-04T20:37:56.942Z,53740.56
2022-08-04T20:40:19.278Z,53744.56
2022-08-04T20:42:47.647Z,53742.56
2022-08-04T20:45:16.870Z,53738.59
2022-08-04T20:47:53.084Z,53736.59
2022-08-04T20:50:29.683Z,53718.66
2022-08-04T20:52:59.438Z,53722.66
2022-08-04T20:55:29.682Z,53752.53
2022-08-04T20:58:03.107Z,53758.50
2022-08-04T21:00:32.296Z,53758.50
2022-08-04T21:03:00.452Z,53736.59
2022-08-04T21:05:28.658Z,53742.56
2022-08-04T21:07:59.905Z,53746.56
2022-08-04T21:10:29.657Z,53750.53
2022-08-04T21:12:57.951Z,53720.66
2022-08-04T21:15:58.821Z,53746.56
2022-08-04T21:18:17.225Z,53762.50
2022-08-04T21:20:47.988Z,53764.47
2022-08-04T21:23:16.519Z,53724.66
2022-08-04T21:25:50.898Z,53742.56
2022-08-04T21:28:20.620Z,53762.50
2022-08-04T21:30:52.315Z,53768.47
2022-08-04T21:33:21.130Z,53776.44
2022-08-04T21:35:54.221Z,53788.38
2022-08-04T21:38:28.280Z,53758.50
2022-08-04T21:41:01.730Z,53742.56
2022-08-04T21:43:42.464Z,53768.47
2022-08-04T21:46:11.910Z,53782.41
2022-08-04T21:48:42.538Z,53792.38
2022-08-04T21:54:04.173Z,53770.47
2022-08-04T21:56:35.654Z,53762.50
2022-08-04T21:59:10.591Z,53766.47
2022-08-04T22:01:50.118Z,53770.47
2022-08-04T22:04:19.597Z,53830.22
2022-08-04T22:06:52.373Z,53746.56
2022-08-04T22:09:21.761Z,53778.44
2022-08-04T22:11:52.344Z,53798.34
2022-08-04T22:14:27.566Z,53784.41
2022-08-04T22:16:58.538Z,53790.38
2022-08-04T22:19:39.596Z,53802.34
2022-08-04T22:22:25.397Z,53830.22
2022-08-04T22:25:12.278Z,53804.31
2022-08-04T22:28:01.036Z,53836.19
2022-08-04T22:30:33.140Z,53814.28
2022-08-04T22:33:07.382Z,53832.22
2022-08-04T22:35:43.688Z,53814.28
2022-08-04T22:38:21.886Z,53862.09
2022-08-04T22:41:00.561Z,53814.28
2022-08-04T22:43:32.132Z,53893.97
2022-08-04T22:46:01.794Z,53828.22
2022-08-04T22:48:32.126Z,53822.25
2022-08-04T22:51:00.760Z,53846.16
2022-08-04T22:53:29.147Z,53880.03
2022-08-04T22:56:06.961Z,53854.13
2022-08-04T22:58:45.497Z,53838.19
2022-08-04T23:01:19.515Z,53836.19
2022-08-04T23:03:51.096Z,53818.28
2022-08-04T23:06:25.115Z,53844.16
2022-08-04T23:08:53.583Z,53882.03
2022-08-04T23:11:21.773Z,53880.03
2022-08-04T23:13:51.208Z,53840.19
2022-08-04T23:16:21.133Z,53842.19
2022-08-04T23:18:52.770Z,53822.25
2022-08-04T23:21:24.256Z,53830.22
2022-08-04T23:24:00.874Z,53828.22
2022-08-04T23:26:31.088Z,53854.13
2022-08-04T23:29:03.846Z,53820.25
2022-08-04T23:31:40.870Z,53852.13
2022-08-04T23:34:16.799Z,53830.22
2022-08-04T23:36:47.506Z,53836.19
2022-08-04T23:39:15.913Z,53878.03
2022-08-04T23:41:53.612Z,53874.06
2022-08-04T23:44:27.029Z,53850.16
2022-08-04T23:47:00.512Z,53884.00
2022-08-04T23:49:42.280Z,53893.97
2022-08-04T23:52:23.069Z,53860.09
2022-08-04T23:54:56.644Z,53901.94
2022-08-04T23:57:31.479Z,53874.06
